Terminal Aerodrome Forecast
Issued by NWS Cleveland, OH

Home | Current Version | Previous Version | Graphics & Text | Print | Product List | Glossary Off
Versions: 1 2 3 4 5 6 7 8 9 10 11 12 13 14 15 16 17 18 19 20 21 22

000
FTUS41 KCLE 261500 AAB
TAFERI
TAF AMD
KERI 261502Z 2615/2712 04010KT 2SM -SN OVC035
     FM261600 04008KT 1 1/2SM -SN OVC025
     FM262200 02008KT 4SM -SN BR OVC025
     FM270300 33006KT P6SM OVC025=

USA.gov is the U.S. government's official web portal to all federal, state and local government web resources and services.